sensor_id;sensor_type;location;lat;lon;timestamp;P1;durP1;ratioP1;P2;durP2;ratioP2
16822;SDS011;8528;49.976;11.858;2023-01-10T00:01:57;1.40;;;1.30;;
16822;SDS011;8528;49.976;11.858;2023-01-10T00:04:24;1.73;;;1.37;;
16822;SDS011;8528;49.976;11.858;2023-01-10T00:06:52;1.23;;;1.13;;
16822;SDS011;8528;49.976;11.858;2023-01-10T00:09:18;1.43;;;1.33;;
16822;SDS011;8528;49.976;11.858;2023-01-10T00:11:46;1.80;;;1.60;;
16822;SDS011;8528;49.976;11.858;2023-01-10T00:14:32;3.30;;;1.70;;
16822;SDS011;8528;49.976;11.858;2023-01-10T00:17:00;2.50;;;1.93;;
16822;SDS011;8528;49.976;11.858;2023-01-10T00:19:28;2.20;;;1.80;;
16822;SDS011;8528;49.976;11.858;2023-01-10T00:21:55;2.70;;;1.97;;
16822;SDS011;8528;49.976;11.858;2023-01-10T00:24:31;2.10;;;1.90;;
16822;SDS011;8528;49.976;11.858;2023-01-10T00:26:58;2.07;;;1.87;;
16822;SDS011;8528;49.976;11.858;2023-01-10T00:29:25;3.17;;;2.40;;
16822;SDS011;8528;49.976;11.858;2023-01-10T00:31:53;2.93;;;2.20;;
16822;SDS011;8528;49.976;11.858;2023-01-10T00:34:20;3.00;;;2.10;;
16822;SDS011;8528;49.976;11.858;2023-01-10T00:36:47;2.37;;;1.93;;
16822;SDS011;8528;49.976;11.858;2023-01-10T00:39:14;2.30;;;2.10;;
16822;SDS011;8528;49.976;11.858;2023-01-10T00:41:44;2.80;;;2.50;;
16822;SDS011;8528;49.976;11.858;2023-01-10T00:44:29;2.47;;;2.27;;
16822;SDS011;8528;49.976;11.858;2023-01-10T00:46:56;3.33;;;2.80;;
16822;SDS011;8528;49.976;11.858;2023-01-10T00:49:23;3.40;;;2.70;;
16822;SDS011;8528;49.976;11.858;2023-01-10T00:51:50;3.07;;;2.30;;
16822;SDS011;8528;49.976;11.858;2023-01-10T00:54:16;3.33;;;2.77;;
16822;SDS011;8528;49.976;11.858;2023-01-10T00:56:43;3.27;;;2.77;;
16822;SDS011;8528;49.976;11.858;2023-01-10T00:59:10;3.30;;;2.50;;
16822;SDS011;8528;49.976;11.858;2023-01-10T01:01:37;2.70;;;2.50;;
16822;SDS011;8528;49.976;11.858;2023-01-10T01:04:04;3.83;;;3.13;;
16822;SDS011;8528;49.976;11.858;2023-01-10T01:06:31;5.67;;;2.80;;
16822;SDS011;8528;49.976;11.858;2023-01-10T01:08:57;3.87;;;3.20;;
16822;SDS011;8528;49.976;11.858;2023-01-10T01:11:24;3.23;;;2.93;;
16822;SDS011;8528;49.976;11.858;2023-01-10T01:13:51;5.13;;;3.27;;
16822;SDS011;8528;49.976;11.858;2023-01-10T01:16:18;3.97;;;3.13;;
16822;SDS011;8528;49.976;11.858;2023-01-10T01:18:45;3.67;;;3.00;;
16822;SDS011;8528;49.976;11.858;2023-01-10T01:21:12;4.13;;;3.30;;
16822;SDS011;8528;49.976;11.858;2023-01-10T01:23:38;4.20;;;3.63;;
16822;SDS011;8528;49.976;11.858;2023-01-10T01:26:05;4.77;;;3.10;;
16822;SDS011;8528;49.976;11.858;2023-01-10T01:28:32;4.47;;;3.63;;
16822;SDS011;8528;49.976;11.858;2023-01-10T01:31:04;5.57;;;3.70;;
16822;SDS011;8528;49.976;11.858;2023-01-10T01:33:33;6.10;;;4.07;;
16822;SDS011;8528;49.976;11.858;2023-01-10T01:36:00;6.00;;;3.83;;
16822;SDS011;8528;49.976;11.858;2023-01-10T01:38:27;5.97;;;3.40;;
16822;SDS011;8528;49.976;11.858;2023-01-10T01:40:53;4.53;;;3.63;;
16822;SDS011;8528;49.976;11.858;2023-01-10T01:43:22;5.23;;;3.30;;
16822;SDS011;8528;49.976;11.858;2023-01-10T01:45:49;4.93;;;3.03;;
16822;SDS011;8528;49.976;11.858;2023-01-10T01:48:17;4.30;;;3.67;;
16822;SDS011;8528;49.976;11.858;2023-01-10T01:50:57;5.77;;;3.50;;
16822;SDS011;8528;49.976;11.858;2023-01-10T01:53:33;5.80;;;3.73;;
16822;SDS011;8528;49.976;11.858;2023-01-10T01:56:29;5.17;;;3.30;;
16822;SDS011;8528;49.976;11.858;2023-01-10T01:59:06;4.47;;;3.30;;
16822;SDS011;8528;49.976;11.858;2023-01-10T02:01:43;6.77;;;3.00;;
16822;SDS011;8528;49.976;11.858;2023-01-10T02:04:17;3.93;;;3.23;;
16822;SDS011;8528;49.976;11.858;2023-01-10T02:06:52;5.07;;;3.43;;
16822;SDS011;8528;49.976;11.858;2023-01-10T02:09:27;3.77;;;3.30;;
16822;SDS011;8528;49.976;11.858;2023-01-10T02:12:08;3.50;;;3.10;;
16822;SDS011;8528;49.976;11.858;2023-01-10T02:14:36;5.37;;;3.40;;
16822;SDS011;8528;49.976;11.858;2023-01-10T02:17:04;4.47;;;2.90;;
16822;SDS011;8528;49.976;11.858;2023-01-10T02:19:47;3.63;;;3.00;;
16822;SDS011;8528;49.976;11.858;2023-01-10T02:25:08;5.83;;;3.07;;
16822;SDS011;8528;49.976;11.858;2023-01-10T02:28:03;3.20;;;2.90;;
16822;SDS011;8528;49.976;11.858;2023-01-10T02:33:29;3.77;;;3.13;;
16822;SDS011;8528;49.976;11.858;2023-01-10T02:43:55;4.73;;;2.63;;
16822;SDS011;8528;49.976;11.858;2023-01-10T02:49:15;3.63;;;2.73;;
16822;SDS011;8528;49.976;11.858;2023-01-10T02:51:42;4.47;;;2.90;;
16822;SDS011;8528;49.976;11.858;2023-01-10T02:54:12;4.17;;;2.87;;
16822;SDS011;8528;49.976;11.858;2023-01-10T02:57:02;3.07;;;2.77;;
16822;SDS011;8528;49.976;11.858;2023-01-10T02:59:52;3.77;;;2.40;;
16822;SDS011;8528;49.976;11.858;2023-01-10T03:02:29;3.97;;;2.83;;
16822;SDS011;8528;49.976;11.858;2023-01-10T03:10:52;3.03;;;2.67;;
16822;SDS011;8528;49.976;11.858;2023-01-10T03:13:25;4.20;;;2.60;;
16822;SDS011;8528;49.976;11.858;2023-01-10T03:16:03;4.77;;;2.63;;
16822;SDS011;8528;49.976;11.858;2023-01-10T03:18:35;4.40;;;2.60;;
16822;SDS011;8528;49.976;11.858;2023-01-10T03:21:08;2.97;;;2.37;;
16822;SDS011;8528;49.976;11.858;2023-01-10T03:23:36;5.80;;;2.40;;
16822;SDS011;8528;49.976;11.858;2023-01-10T03:26:04;3.97;;;2.00;;
16822;SDS011;8528;49.976;11.858;2023-01-10T03:28:47;3.07;;;2.40;;
16822;SDS011;8528;49.976;11.858;2023-01-10T03:31:19;1.90;;;1.80;;
16822;SDS011;8528;49.976;11.858;2023-01-10T03:33:51;3.20;;;2.60;;
16822;SDS011;8528;49.976;11.858;2023-01-10T03:36:25;5.17;;;2.27;;
16822;SDS011;8528;49.976;11.858;2023-01-10T03:38:57;2.43;;;2.23;;
16822;SDS011;8528;49.976;11.858;2023-01-10T03:41:37;2.83;;;1.80;;
16822;SDS011;8528;49.976;11.858;2023-01-10T03:44:32;2.50;;;2.30;;
16822;SDS011;8528;49.976;11.858;2023-01-10T03:50:17;2.30;;;2.10;;
16822;SDS011;8528;49.976;11.858;2023-01-10T03:52:47;3.93;;;2.10;;
16822;SDS011;8528;49.976;11.858;2023-01-10T03:55:15;2.30;;;2.10;;
16822;SDS011;8528;49.976;11.858;2023-01-10T03:57:45;3.37;;;2.17;;
16822;SDS011;8528;49.976;11.858;2023-01-10T04:00:14;3.33;;;1.90;;
16822;SDS011;8528;49.976;11.858;2023-01-10T04:02:42;4.13;;;2.40;;
16822;SDS011;8528;49.976;11.858;2023-01-10T04:05:09;3.17;;;2.17;;
16822;SDS011;8528;49.976;11.858;2023-01-10T04:07:36;6.37;;;2.37;;
16822;SDS011;8528;49.976;11.858;2023-01-10T04:10:04;4.33;;;2.20;;
16822;SDS011;8528;49.976;11.858;2023-01-10T04:12:31;2.47;;;2.17;;
16822;SDS011;8528;49.976;11.858;2023-01-10T04:14:58;2.93;;;2.37;;
16822;SDS011;8528;49.976;11.858;2023-01-10T04:17:26;4.23;;;2.33;;
16822;SDS011;8528;49.976;11.858;2023-01-10T04:19:53;2.57;;;2.30;;
16822;SDS011;8528;49.976;11.858;2023-01-10T04:22:20;3.90;;;2.70;;
16822;SDS011;8528;49.976;11.858;2023-01-10T04:24:46;5.33;;;2.73;;
16822;SDS011;8528;49.976;11.858;2023-01-10T04:27:17;4.00;;;2.63;;
16822;SDS011;8528;49.976;11.858;2023-01-10T04:29:44;4.90;;;2.60;;
16822;SDS011;8528;49.976;11.858;2023-01-10T04:32:11;2.83;;;2.53;;
16822;SDS011;8528;49.976;11.858;2023-01-10T04:34:38;4.13;;;2.70;;
16822;SDS011;8528;49.976;11.858;2023-01-10T04:39:38;2.97;;;2.67;;
16822;SDS011;8528;49.976;11.858;2023-01-10T04:42:06;3.47;;;2.53;;
16822;SDS011;8528;49.976;11.858;2023-01-10T04:44:33;3.20;;;2.67;;
16822;SDS011;8528;49.976;11.858;2023-01-10T04:46:59;4.13;;;2.67;;
16822;SDS011;8528;49.976;11.858;2023-01-10T04:49:26;3.47;;;2.30;;
16822;SDS011;8528;49.976;11.858;2023-01-10T04:51:53;3.10;;;2.43;;
16822;SDS011;8528;49.976;11.858;2023-01-10T04:54:20;3.23;;;2.60;;
16822;SDS011;8528;49.976;11.858;2023-01-10T04:56:47;2.40;;;2.00;;
16822;SDS011;8528;49.976;11.858;2023-01-10T04:59:14;3.37;;;2.30;;
16822;SDS011;8528;49.976;11.858;2023-01-10T05:01:41;3.73;;;2.43;;
16822;SDS011;8528;49.976;11.858;2023-01-10T05:04:09;3.83;;;2.50;;
16822;SDS011;8528;49.976;11.858;2023-01-10T05:06:36;3.43;;;2.63;;
16822;SDS011;8528;49.976;11.858;2023-01-10T05:09:06;2.70;;;2.37;;
16822;SDS011;8528;49.976;11.858;2023-01-10T05:11:33;3.27;;;2.70;;
16822;SDS011;8528;49.976;11.858;2023-01-10T05:14:00;3.03;;;2.77;;
16822;SDS011;8528;49.976;11.858;2023-01-10T05:16:27;3.57;;;2.60;;
16822;SDS011;8528;49.976;11.858;2023-01-10T05:18:54;5.43;;;3.03;;
16822;SDS011;8528;49.976;11.858;2023-01-10T05:21:21;2.90;;;2.60;;
16822;SDS011;8528;49.976;11.858;2023-01-10T05:23:48;5.80;;;3.27;;
16822;SDS011;8528;49.976;11.858;2023-01-10T05:26:16;4.20;;;3.20;;
16822;SDS011;8528;49.976;11.858;2023-01-10T05:28:44;4.70;;;3.23;;
16822;SDS011;8528;49.976;11.858;2023-01-10T05:31:12;3.80;;;3.10;;
16822;SDS011;8528;49.976;11.858;2023-01-10T05:33:48;3.00;;;2.70;;
16822;SDS011;8528;49.976;11.858;2023-01-10T05:36:16;3.33;;;2.70;;
16822;SDS011;8528;49.976;11.858;2023-01-10T05:38:44;3.00;;;2.70;;
16822;SDS011;8528;49.976;11.858;2023-01-10T05:41:11;3.17;;;2.70;;
16822;SDS011;8528;49.976;11.858;2023-01-10T05:43:38;3.77;;;2.77;;
16822;SDS011;8528;49.976;11.858;2023-01-10T05:46:05;3.97;;;2.50;;
16822;SDS011;8528;49.976;11.858;2023-01-10T05:48:32;3.80;;;2.50;;
16822;SDS011;8528;49.976;11.858;2023-01-10T05:50:58;4.57;;;2.80;;
16822;SDS011;8528;49.976;11.858;2023-01-10T05:53:25;3.00;;;2.70;;
16822;SDS011;8528;49.976;11.858;2023-01-10T05:55:55;4.07;;;2.97;;
16822;SDS011;8528;49.976;11.858;2023-01-10T05:58:24;3.67;;;2.93;;
16822;SDS011;8528;49.976;11.858;2023-01-10T06:00:52;4.53;;;2.90;;
16822;SDS011;8528;49.976;11.858;2023-01-10T06:03:20;4.93;;;3.20;;
16822;SDS011;8528;49.976;11.858;2023-01-10T06:05:47;3.70;;;3.17;;
16822;SDS011;8528;49.976;11.858;2023-01-10T06:08:14;4.07;;;3.23;;
16822;SDS011;8528;49.976;11.858;2023-01-10T06:10:41;3.17;;;2.80;;
16822;SDS011;8528;49.976;11.858;2023-01-10T06:13:09;3.93;;;2.87;;
16822;SDS011;8528;49.976;11.858;2023-01-10T06:15:37;3.57;;;2.90;;
16822;SDS011;8528;49.976;11.858;2023-01-10T06:18:04;3.37;;;2.90;;
16822;SDS011;8528;49.976;11.858;2023-01-10T06:20:32;5.73;;;2.87;;
16822;SDS011;8528;49.976;11.858;2023-01-10T06:22:58;3.50;;;2.60;;
16822;SDS011;8528;49.976;11.858;2023-01-10T06:25:27;3.90;;;3.20;;
16822;SDS011;8528;49.976;11.858;2023-01-10T06:27:54;4.27;;;2.80;;
16822;SDS011;8528;49.976;11.858;2023-01-10T06:30:21;6.07;;;3.17;;
16822;SDS011;8528;49.976;11.858;2023-01-10T06:32:48;4.77;;;3.60;;
16822;SDS011;8528;49.976;11.858;2023-01-10T06:35:15;3.43;;;3.13;;
16822;SDS011;8528;49.976;11.858;2023-01-10T06:37:43;3.83;;;2.77;;
16822;SDS011;8528;49.976;11.858;2023-01-10T06:40:10;4.87;;;2.90;;
16822;SDS011;8528;49.976;11.858;2023-01-10T06:42:38;3.80;;;3.50;;
16822;SDS011;8528;49.976;11.858;2023-01-10T06:45:05;3.60;;;3.30;;
16822;SDS011;8528;49.976;11.858;2023-01-10T06:47:33;6.50;;;2.60;;
16822;SDS011;8528;49.976;11.858;2023-01-10T06:49:59;3.10;;;2.80;;
16822;SDS011;8528;49.976;11.858;2023-01-10T06:52:26;3.57;;;2.70;;
16822;SDS011;8528;49.976;11.858;2023-01-10T06:54:53;4.33;;;2.70;;
16822;SDS011;8528;49.976;11.858;2023-01-10T06:57:20;9.70;;;3.43;;
16822;SDS011;8528;49.976;11.858;2023-01-10T06:59:47;3.17;;;2.73;;
16822;SDS011;8528;49.976;11.858;2023-01-10T07:02:13;3.40;;;3.10;;
16822;SDS011;8528;49.976;11.858;2023-01-10T07:04:40;7.73;;;3.47;;
16822;SDS011;8528;49.976;11.858;2023-01-10T07:07:07;5.40;;;3.40;;
16822;SDS011;8528;49.976;11.858;2023-01-10T07:09:34;3.67;;;3.17;;
16822;SDS011;8528;49.976;11.858;2023-01-10T07:12:01;4.33;;;2.70;;
16822;SDS011;8528;49.976;11.858;2023-01-10T07:14:28;4.13;;;2.90;;
16822;SDS011;8528;49.976;11.858;2023-01-10T07:16:54;6.50;;;3.20;;
16822;SDS011;8528;49.976;11.858;2023-01-10T07:19:21;5.13;;;3.30;;
16822;SDS011;8528;49.976;11.858;2023-01-10T07:21:48;4.87;;;3.40;;
16822;SDS011;8528;49.976;11.858;2023-01-10T07:24:15;5.70;;;3.40;;
16822;SDS011;8528;49.976;11.858;2023-01-10T07:26:41;4.53;;;3.10;;
16822;SDS011;8528;49.976;11.858;2023-01-10T07:29:08;5.47;;;2.87;;
16822;SDS011;8528;49.976;11.858;2023-01-10T07:31:35;7.07;;;3.13;;
16822;SDS011;8528;49.976;11.858;2023-01-10T07:34:02;4.33;;;3.10;;
16822;SDS011;8528;49.976;11.858;2023-01-10T07:36:29;3.73;;;3.03;;
16822;SDS011;8528;49.976;11.858;2023-01-10T07:38:55;4.13;;;2.93;;
16822;SDS011;8528;49.976;11.858;2023-01-10T07:41:22;4.37;;;2.90;;
16822;SDS011;8528;49.976;11.858;2023-01-10T07:43:49;3.43;;;2.60;;
16822;SDS011;8528;49.976;11.858;2023-01-10T07:46:16;4.17;;;2.90;;
16822;SDS011;8528;49.976;11.858;2023-01-10T07:48:43;5.03;;;2.73;;
16822;SDS011;8528;49.976;11.858;2023-01-10T07:56:22;5.17;;;2.67;;
16822;SDS011;8528;49.976;11.858;2023-01-10T07:58:49;5.47;;;3.37;;
16822;SDS011;8528;49.976;11.858;2023-01-10T08:01:27;4.00;;;2.80;;
16822;SDS011;8528;49.976;11.858;2023-01-10T08:03:55;3.07;;;2.73;;
16822;SDS011;8528;49.976;11.858;2023-01-10T08:06:23;3.50;;;3.10;;
16822;SDS011;8528;49.976;11.858;2023-01-10T08:08:50;3.23;;;2.70;;
16822;SDS011;8528;49.976;11.858;2023-01-10T08:11:17;3.83;;;2.97;;
16822;SDS011;8528;49.976;11.858;2023-01-10T08:13:43;7.23;;;3.20;;
16822;SDS011;8528;49.976;11.858;2023-01-10T08:16:10;6.17;;;3.27;;
16822;SDS011;8528;49.976;11.858;2023-01-10T08:18:37;3.63;;;3.20;;
16822;SDS011;8528;49.976;11.858;2023-01-10T08:21:07;4.97;;;3.10;;
16822;SDS011;8528;49.976;11.858;2023-01-10T08:23:35;6.03;;;3.93;;
16822;SDS011;8528;49.976;11.858;2023-01-10T08:26:01;5.33;;;3.63;;
16822;SDS011;8528;49.976;11.858;2023-01-10T08:28:28;5.07;;;3.20;;
16822;SDS011;8528;49.976;11.858;2023-01-10T08:31:14;3.90;;;3.23;;
16822;SDS011;8528;49.976;11.858;2023-01-10T08:33:41;3.80;;;3.33;;
16822;SDS011;8528;49.976;11.858;2023-01-10T08:36:14;3.10;;;2.73;;
16822;SDS011;8528;49.976;11.858;2023-01-10T08:38:42;4.63;;;3.70;;
16822;SDS011;8528;49.976;11.858;2023-01-10T08:41:09;3.80;;;3.40;;
16822;SDS011;8528;49.976;11.858;2023-01-10T08:43:36;5.47;;;3.10;;
16822;SDS011;8528;49.976;11.858;2023-01-10T08:46:03;7.80;;;4.33;;
16822;SDS011;8528;49.976;11.858;2023-01-10T08:48:30;5.67;;;3.50;;
16822;SDS011;8528;49.976;11.858;2023-01-10T08:50:57;4.90;;;3.03;;
16822;SDS011;8528;49.976;11.858;2023-01-10T08:53:29;3.97;;;3.00;;
16822;SDS011;8528;49.976;11.858;2023-01-10T08:55:57;4.50;;;3.30;;
16822;SDS011;8528;49.976;11.858;2023-01-10T08:58:23;4.63;;;3.07;;
16822;SDS011;8528;49.976;11.858;2023-01-10T09:00:50;4.07;;;3.47;;
16822;SDS011;8528;49.976;11.858;2023-01-10T09:03:17;3.93;;;2.90;;
16822;SDS011;8528;49.976;11.858;2023-01-10T09:05:44;3.27;;;2.70;;
16822;SDS011;8528;49.976;11.858;2023-01-10T09:08:11;4.50;;;3.13;;
16822;SDS011;8528;49.976;11.858;2023-01-10T09:10:51;8.97;;;3.70;;
16822;SDS011;8528;49.976;11.858;2023-01-10T09:13:18;5.43;;;3.43;;
16822;SDS011;8528;49.976;11.858;2023-01-10T09:15:45;7.03;;;4.03;;
16822;SDS011;8528;49.976;11.858;2023-01-10T09:18:12;4.30;;;3.70;;
16822;SDS011;8528;49.976;11.858;2023-01-10T09:20:40;6.00;;;2.97;;
16822;SDS011;8528;49.976;11.858;2023-01-10T09:23:09;5.13;;;3.17;;
16822;SDS011;8528;49.976;11.858;2023-01-10T09:25:37;5.43;;;3.80;;
16822;SDS011;8528;49.976;11.858;2023-01-10T09:28:04;4.40;;;2.90;;
16822;SDS011;8528;49.976;11.858;2023-01-10T09:30:31;3.97;;;3.17;;
16822;SDS011;8528;49.976;11.858;2023-01-10T09:32:58;5.93;;;3.87;;
16822;SDS011;8528;49.976;11.858;2023-01-10T09:35:26;4.97;;;3.70;;
16822;SDS011;8528;49.976;11.858;2023-01-10T09:37:54;3.90;;;3.20;;
16822;SDS011;8528;49.976;11.858;2023-01-10T09:51:41;2.60;;;2.40;;
16822;SDS011;8528;49.976;11.858;2023-01-10T09:54:10;3.97;;;3.00;;
16822;SDS011;8528;49.976;11.858;2023-01-10T09:56:40;5.90;;;3.17;;
16822;SDS011;8528;49.976;11.858;2023-01-10T09:59:16;5.13;;;2.80;;
16822;SDS011;8528;49.976;11.858;2023-01-10T10:01:45;7.50;;;3.17;;
16822;SDS011;8528;49.976;11.858;2023-01-10T10:06:49;6.17;;;2.97;;
16822;SDS011;8528;49.976;11.858;2023-01-10T10:09:26;4.37;;;2.97;;
16822;SDS011;8528;49.976;11.858;2023-01-10T10:15:01;6.57;;;3.30;;
16822;SDS011;8528;49.976;11.858;2023-01-10T10:20:33;6.40;;;3.13;;
16822;SDS011;8528;49.976;11.858;2023-01-10T10:29:15;4.13;;;3.03;;
16822;SDS011;8528;49.976;11.858;2023-01-10T10:34:47;6.23;;;3.33;;
16822;SDS011;8528;49.976;11.858;2023-01-10T10:42:41;5.40;;;3.30;;
16822;SDS011;8528;49.976;11.858;2023-01-10T10:45:47;5.63;;;2.83;;
16822;SDS011;8528;49.976;11.858;2023-01-10T10:50:53;4.73;;;2.73;;
16822;SDS011;8528;49.976;11.858;2023-01-10T10:53:21;5.60;;;3.00;;
16822;SDS011;8528;49.976;11.858;2023-01-10T10:55:48;3.33;;;2.50;;
16822;SDS011;8528;49.976;11.858;2023-01-10T10:58:15;7.83;;;3.13;;
16822;SDS011;8528;49.976;11.858;2023-01-10T11:00:43;4.53;;;2.50;;
16822;SDS011;8528;49.976;11.858;2023-01-10T11:05:53;3.93;;;2.40;;
16822;SDS011;8528;49.976;11.858;2023-01-10T11:08:20;3.57;;;2.63;;
16822;SDS011;8528;49.976;11.858;2023-01-10T11:10:50;3.10;;;2.03;;
16822;SDS011;8528;49.976;11.858;2023-01-10T11:13:29;2.87;;;2.40;;
16822;SDS011;8528;49.976;11.858;2023-01-10T11:16:21;5.43;;;2.67;;
16822;SDS011;8528;49.976;11.858;2023-01-10T11:19:07;3.37;;;2.20;;
16822;SDS011;8528;49.976;11.858;2023-01-10T11:21:53;6.63;;;3.13;;
16822;SDS011;8528;49.976;11.858;2023-01-10T11:24:24;5.77;;;3.57;;
16822;SDS011;8528;49.976;11.858;2023-01-10T11:27:15;6.97;;;3.30;;
16822;SDS011;8528;49.976;11.858;2023-01-10T11:29:55;6.37;;;2.80;;
16822;SDS011;8528;49.976;11.858;2023-01-10T11:32:32;6.97;;;2.90;;
16822;SDS011;8528;49.976;11.858;2023-01-10T11:35:14;4.60;;;2.50;;
16822;SDS011;8528;49.976;11.858;2023-01-10T11:37:56;4.60;;;2.40;;
16822;SDS011;8528;49.976;11.858;2023-01-10T11:40:25;4.93;;;2.77;;
16822;SDS011;8528;49.976;11.858;2023-01-10T11:42:54;4.13;;;2.80;;
16822;SDS011;8528;49.976;11.858;2023-01-10T11:45:25;4.27;;;2.30;;
16822;SDS011;8528;49.976;11.858;2023-01-10T11:48:02;4.90;;;2.77;;
16822;SDS011;8528;49.976;11.858;2023-01-10T11:50:47;5.93;;;2.47;;
16822;SDS011;8528;49.976;11.858;2023-01-10T11:56:05;3.97;;;2.37;;
16822;SDS011;8528;49.976;11.858;2023-01-10T11:58:36;8.73;;;2.77;;
16822;SDS011;8528;49.976;11.858;2023-01-10T12:01:05;3.67;;;2.77;;
16822;SDS011;8528;49.976;11.858;2023-01-10T12:03:48;3.70;;;2.37;;
16822;SDS011;8528;49.976;11.858;2023-01-10T12:06:15;6.93;;;2.63;;
16822;SDS011;8528;49.976;11.858;2023-01-10T12:11:25;6.47;;;2.37;;
16822;SDS011;8528;49.976;11.858;2023-01-10T12:13:57;3.87;;;2.30;;
16822;SDS011;8528;49.976;11.858;2023-01-10T12:16:27;4.23;;;2.87;;
16822;SDS011;8528;49.976;11.858;2023-01-10T12:18:58;3.57;;;2.10;;
16822;SDS011;8528;49.976;11.858;2023-01-10T12:21:39;5.60;;;2.40;;
16822;SDS011;8528;49.976;11.858;2023-01-10T12:24:41;3.50;;;2.60;;
16822;SDS011;8528;49.976;11.858;2023-01-10T12:27:02;3.70;;;2.30;;
16822;SDS011;8528;49.976;11.858;2023-01-10T12:29:32;3.47;;;2.23;;
16822;SDS011;8528;49.976;11.858;2023-01-10T12:35:14;6.13;;;2.57;;
16822;SDS011;8528;49.976;11.858;2023-01-10T12:37:45;6.03;;;3.40;;
16822;SDS011;8528;49.976;11.858;2023-01-10T12:40:24;5.40;;;3.10;;
16822;SDS011;8528;49.976;11.858;2023-01-10T12:43:05;2.60;;;2.40;;
16822;SDS011;8528;49.976;11.858;2023-01-10T12:46:13;5.20;;;2.43;;
16822;SDS011;8528;49.976;11.858;2023-01-10T12:49:20;8.63;;;5.07;;
16822;SDS011;8528;49.976;11.858;2023-01-10T12:51:51;8.63;;;5.63;;
16822;SDS011;8528;49.976;11.858;2023-01-10T12:54:22;10.73;;;7.97;;
16822;SDS011;8528;49.976;11.858;2023-01-10T12:56:51;7.63;;;5.87;;
16822;SDS011;8528;49.976;11.858;2023-01-10T12:59:21;5.93;;;3.80;;
16822;SDS011;8528;49.976;11.858;2023-01-10T13:02:06;4.00;;;2.63;;
16822;SDS011;8528;49.976;11.858;2023-01-10T13:04:40;3.43;;;2.67;;
16822;SDS011;8528;49.976;11.858;2023-01-10T13:07:10;7.03;;;2.67;;
16822;SDS011;8528;49.976;11.858;2023-01-10T13:09:38;8.37;;;3.80;;
16822;SDS011;8528;49.976;11.858;2023-01-10T13:12:16;5.00;;;3.13;;
16822;SDS011;8528;49.976;11.858;2023-01-10T13:22:43;6.17;;;3.40;;
16822;SDS011;8528;49.976;11.858;2023-01-10T13:25:18;6.93;;;3.30;;
16822;SDS011;8528;49.976;11.858;2023-01-10T13:27:45;7.17;;;4.70;;
16822;SDS011;8528;49.976;11.858;2023-01-10T13:30:36;5.37;;;3.30;;
16822;SDS011;8528;49.976;11.858;2023-01-10T13:33:15;6.63;;;3.37;;
16822;SDS011;8528;49.976;11.858;2023-01-10T13:35:44;4.47;;;2.33;;
16822;SDS011;8528;49.976;11.858;2023-01-10T13:38:15;5.57;;;4.43;;
16822;SDS011;8528;49.976;11.858;2023-01-10T13:44:08;4.57;;;2.80;;
16822;SDS011;8528;49.976;11.858;2023-01-10T13:46:40;7.03;;;3.50;;
16822;SDS011;8528;49.976;11.858;2023-01-10T13:51:39;9.07;;;3.10;;
16822;SDS011;8528;49.976;11.858;2023-01-10T13:55:19;8.20;;;2.80;;
16822;SDS011;8528;49.976;11.858;2023-01-10T13:57:53;3.90;;;2.70;;
16822;SDS011;8528;49.976;11.858;2023-01-10T14:06:15;2.97;;;2.67;;
16822;SDS011;8528;49.976;11.858;2023-01-10T14:16:55;3.87;;;2.90;;
16822;SDS011;8528;49.976;11.858;2023-01-10T14:20:06;5.30;;;2.70;;
16822;SDS011;8528;49.976;11.858;2023-01-10T14:22:45;8.60;;;2.73;;
16822;SDS011;8528;49.976;11.858;2023-01-10T14:25:24;3.63;;;2.00;;
16822;SDS011;8528;49.976;11.858;2023-01-10T14:27:53;3.40;;;2.43;;
16822;SDS011;8528;49.976;11.858;2023-01-10T14:32:54;9.10;;;4.20;;
16822;SDS011;8528;49.976;11.858;2023-01-10T14:35:29;15.60;;;7.93;;
16822;SDS011;8528;49.976;11.858;2023-01-10T14:38:05;5.77;;;2.90;;
16822;SDS011;8528;49.976;11.858;2023-01-10T14:40:35;9.57;;;4.37;;
16822;SDS011;8528;49.976;11.858;2023-01-10T14:43:08;4.07;;;2.37;;
16822;SDS011;8528;49.976;11.858;2023-01-10T14:45:49;5.27;;;2.63;;
16822;SDS011;8528;49.976;11.858;2023-01-10T14:48:29;7.33;;;3.57;;
16822;SDS011;8528;49.976;11.858;2023-01-10T14:53:55;4.70;;;2.60;;
16822;SDS011;8528;49.976;11.858;2023-01-10T14:58:51;4.60;;;3.13;;
16822;SDS011;8528;49.976;11.858;2023-01-10T15:01:20;4.60;;;2.87;;
16822;SDS011;8528;49.976;11.858;2023-01-10T15:03:50;5.63;;;2.43;;
16822;SDS011;8528;49.976;11.858;2023-01-10T15:06:17;7.60;;;3.07;;
16822;SDS011;8528;49.976;11.858;2023-01-10T15:08:44;5.33;;;4.10;;
16822;SDS011;8528;49.976;11.858;2023-01-10T15:11:11;7.00;;;3.47;;
16822;SDS011;8528;49.976;11.858;2023-01-10T15:13:46;6.93;;;3.20;;
16822;SDS011;8528;49.976;11.858;2023-01-10T15:16:17;3.57;;;3.20;;
16822;SDS011;8528;49.976;11.858;2023-01-10T15:18:45;10.43;;;3.10;;
16822;SDS011;8528;49.976;11.858;2023-01-10T15:21:13;6.90;;;3.17;;
16822;SDS011;8528;49.976;11.858;2023-01-10T15:23:45;4.13;;;2.80;;
16822;SDS011;8528;49.976;11.858;2023-01-10T15:26:19;5.43;;;3.27;;
16822;SDS011;8528;49.976;11.858;2023-01-10T15:29:11;7.63;;;3.30;;
16822;SDS011;8528;49.976;11.858;2023-01-10T15:31:45;6.90;;;2.70;;
16822;SDS011;8528;49.976;11.858;2023-01-10T15:34:18;4.20;;;2.73;;
16822;SDS011;8528;49.976;11.858;2023-01-10T15:36:55;4.30;;;3.40;;
16822;SDS011;8528;49.976;11.858;2023-01-10T15:39:26;6.07;;;4.03;;
16822;SDS011;8528;49.976;11.858;2023-01-10T15:42:02;3.70;;;2.70;;
16822;SDS011;8528;49.976;11.858;2023-01-10T15:53:12;12.67;;;6.50;;
16822;SDS011;8528;49.976;11.858;2023-01-10T15:55:43;6.47;;;3.23;;
16822;SDS011;8528;49.976;11.858;2023-01-10T15:58:15;8.93;;;3.17;;
16822;SDS011;8528;49.976;11.858;2023-01-10T16:00:45;10.83;;;3.23;;
16822;SDS011;8528;49.976;11.858;2023-01-10T16:03:23;3.63;;;2.50;;
16822;SDS011;8528;49.976;11.858;2023-01-10T16:05:55;5.77;;;3.17;;
16822;SDS011;8528;49.976;11.858;2023-01-10T16:08:25;7.60;;;2.93;;
16822;SDS011;8528;49.976;11.858;2023-01-10T16:10:54;7.10;;;2.77;;
16822;SDS011;8528;49.976;11.858;2023-01-10T16:13:23;6.67;;;3.20;;
16822;SDS011;8528;49.976;11.858;2023-01-10T16:15:54;6.70;;;3.00;;
16822;SDS011;8528;49.976;11.858;2023-01-10T16:18:21;5.07;;;2.93;;
16822;SDS011;8528;49.976;11.858;2023-01-10T16:21:02;7.27;;;2.93;;
16822;SDS011;8528;49.976;11.858;2023-01-10T16:23:31;6.67;;;3.67;;
16822;SDS011;8528;49.976;11.858;2023-01-10T16:26:04;11.07;;;3.63;;
16822;SDS011;8528;49.976;11.858;2023-01-10T16:28:31;9.03;;;4.10;;
16822;SDS011;8528;49.976;11.858;2023-01-10T16:31:02;8.60;;;4.63;;
16822;SDS011;8528;49.976;11.858;2023-01-10T16:33:31;5.70;;;2.97;;
16822;SDS011;8528;49.976;11.858;2023-01-10T16:35:59;5.60;;;3.47;;
16822;SDS011;8528;49.976;11.858;2023-01-10T16:38:27;5.83;;;3.30;;
16822;SDS011;8528;49.976;11.858;2023-01-10T16:40:58;4.50;;;3.30;;
16822;SDS011;8528;49.976;11.858;2023-01-10T16:43:47;7.00;;;3.13;;
16822;SDS011;8528;49.976;11.858;2023-01-10T16:46:14;7.40;;;2.60;;
16822;SDS011;8528;49.976;11.858;2023-01-10T16:48:41;5.40;;;2.87;;
16822;SDS011;8528;49.976;11.858;2023-01-10T16:51:14;4.33;;;2.67;;
16822;SDS011;8528;49.976;11.858;2023-01-10T16:53:43;11.27;;;4.00;;
16822;SDS011;8528;49.976;11.858;2023-01-10T16:56:12;6.73;;;2.60;;
16822;SDS011;8528;49.976;11.858;2023-01-10T16:58:40;7.30;;;4.07;;
16822;SDS011;8528;49.976;11.858;2023-01-10T17:01:10;8.00;;;3.53;;
16822;SDS011;8528;49.976;11.858;2023-01-10T17:03:42;5.50;;;3.30;;
16822;SDS011;8528;49.976;11.858;2023-01-10T17:06:10;5.03;;;2.60;;
16822;SDS011;8528;49.976;11.858;2023-01-10T17:08:37;4.17;;;2.30;;
16822;SDS011;8528;49.976;11.858;2023-01-10T17:11:05;6.20;;;5.50;;
16822;SDS011;8528;49.976;11.858;2023-01-10T17:13:38;9.83;;;5.30;;
16822;SDS011;8528;49.976;11.858;2023-01-10T17:16:07;34.47;;;14.10;;
16822;SDS011;8528;49.976;11.858;2023-01-10T17:18:34;53.77;;;24.00;;